Time;durP1;ratioP1;P1;durP2;ratioP2;P2;SDS_P1;SDS_P2;PMS_P1;PMS_P2;Temp;Humidity;BMP_temperature;BMP_pressure;BME280_temperature;BME280_humidity;BME280_pressure;Samples;Min_cycle;Max_cycle;Signal;HPM_P1;HPM_P2
2022/01/17 00:01:54;;;;;;;202.35;133.23;;;-0.30;99.90;;;;;;4992773;28;20042;-72
2022/01/17 00:04:20;;;;;;;191.02;127.25;;;-0.30;99.90;;;;;;4993078;28;20022;-71
2022/01/17 00:06:47;;;;;;;183.75;129.30;;;-0.30;99.90;;;;;;4993116;28;20023;-71
2022/01/17 00:09:13;;;;;;;201.98;129.95;;;-0.30;99.90;;;;;;4992917;28;20124;-72
2022/01/17 00:11:45;;;;;;;191.93;130.80;;;-0.30;99.90;;;;;;4992234;28;20453;-71
2022/01/17 00:14:12;;;;;;;183.32;128.27;;;-0.20;99.90;;;;;;4992792;28;20049;-71
2022/01/17 00:16:43;;;;;;;195.50;129.35;;;-0.20;99.90;;;;;;4992510;28;20038;-72
2022/01/17 00:21:45;;;;;;;189.60;131.20;;;-0.20;99.90;;;;;;4992579;28;20038;-71
2022/01/17 00:24:11;;;;;;;196.38;133.25;;;-0.20;99.90;;;;;;4992766;28;20026;-71
2022/01/17 00:26:37;;;;;;;189.25;130.05;;;-0.30;99.90;;;;;;4992626;28;20030;-71
2022/01/17 00:29:03;;;;;;;190.25;131.65;;;-0.20;99.90;;;;;;4959022;28;20025;-70
2022/01/17 00:31:29;;;;;;;192.43;132.75;;;-0.30;99.90;;;;;;4992513;28;20039;-71
2022/01/17 00:33:54;;;;;;;193.07;129.70;;;-0.30;99.90;;;;;;4992563;28;20030;-71
2022/01/17 00:36:21;;;;;;;193.90;133.40;;;-0.30;99.90;;;;;;4992594;28;20385;-71
2022/01/17 00:38:47;;;;;;;184.93;128.45;;;-0.30;99.90;;;;;;4974826;28;20041;-71
2022/01/17 00:41:13;;;;;;;174.75;124.70;;;-0.20;99.90;;;;;;4992110;28;20038;-70
2022/01/17 00:43:39;;;;;;;176.75;121.65;;;-0.20;99.90;;;;;;4973980;28;20027;-71
2022/01/17 00:46:05;;;;;;;172.10;124.50;;;-0.30;99.90;;;;;;4992317;28;20424;-71
2022/01/17 00:48:31;;;;;;;175.95;122.45;;;-0.30;99.90;;;;;;4975218;28;20492;-71
2022/01/17 00:50:57;;;;;;;177.35;122.40;;;-0.20;99.90;;;;;;4974939;28;20026;-71
2022/01/17 00:53:23;;;;;;;178.73;121.57;;;-0.20;99.90;;;;;;4992306;28;20030;-70
2022/01/17 00:55:49;;;;;;;181.40;118.80;;;-0.30;99.90;;;;;;4992230;28;20049;-71
2022/01/17 00:58:15;;;;;;;175.07;120.00;;;-0.20;99.90;;;;;;4991902;28;20050;-71
2022/01/17 01:00:42;;;;;;;159.50;111.95;;;-0.20;99.90;;;;;;4991809;28;20037;-71
2022/01/17 01:03:08;;;;;;;161.40;108.20;;;-0.20;99.90;;;;;;4991941;28;20493;-71
2022/01/17 01:05:35;;;;;;;160.63;108.05;;;-0.20;99.90;;;;;;4959002;28;20034;-72
2022/01/17 01:08:01;;;;;;;150.80;104.30;;;-0.20;99.90;;;;;;4974764;28;20110;-72
2022/01/17 01:10:27;;;;;;;159.10;104.93;;;-0.20;99.90;;;;;;4991307;28;20105;-72
2022/01/17 01:12:53;;;;;;;141.73;99.93;;;-0.20;99.90;;;;;;4991530;28;20047;-72
2022/01/17 01:15:33;;;;;;;136.32;97.28;;;-0.20;99.90;;;;;;4991475;28;20034;-72
2022/01/17 01:18:02;;;;;;;148.13;101.18;;;-0.10;99.90;;;;;;4991504;28;20027;-72
2022/01/17 01:28:37;;;;;;;129.05;90.75;;;-0.20;99.90;;;;;;4991472;28;20030;-71
2022/01/17 01:31:10;;;;;;;138.10;93.38;;;-0.20;99.90;;;;;;4991098;28;20068;-71
2022/01/17 01:33:40;;;;;;;123.35;87.60;;;-0.20;99.90;;;;;;4991340;28;20022;-70
2022/01/17 01:36:13;;;;;;;135.93;91.72;;;-0.20;99.90;;;;;;4991525;28;20502;-71
2022/01/17 01:38:41;;;;;;;135.07;94.15;;;-0.20;99.90;;;;;;4991130;28;20130;-71
2022/01/17 01:41:07;;;;;;;139.07;91.80;;;-0.10;99.90;;;;;;4991022;28;20042;-72
2022/01/17 01:43:34;;;;;;;128.82;88.75;;;-0.10;99.90;;;;;;4991153;28;20080;-70
2022/01/17 01:46:01;;;;;;;132.50;89.78;;;-0.10;99.90;;;;;;4973708;28;20031;-71
2022/01/17 01:48:32;;;;;;;129.00;90.32;;;-0.10;99.90;;;;;;4990780;28;20030;-71
2022/01/17 01:50:58;;;;;;;132.65;88.65;;;-0.10;99.90;;;;;;4991332;28;20026;-71
2022/01/17 01:53:25;;;;;;;126.28;87.60;;;0.00;99.90;;;;;;4973843;28;20031;-70
2022/01/17 01:55:53;;;;;;;125.35;85.78;;;0.00;99.90;;;;;;4994375;28;20034;-71
2022/01/17 01:58:21;;;;;;;125.80;85.53;;;0.00;99.90;;;;;;4994288;28;20134;-71
2022/01/17 02:00:47;;;;;;;134.05;86.00;;;0.10;99.90;;;;;;4976871;28;20477;-70
2022/01/17 02:03:13;;;;;;;121.80;88.18;;;0.10;99.90;;;;;;4994972;28;20358;-70
2022/01/17 02:05:40;;;;;;;120.22;87.65;;;0.20;99.90;;;;;;4994571;28;20100;-70
2022/01/17 02:08:11;;;;;;;123.28;85.55;;;0.20;99.90;;;;;;4977086;28;20089;-70
2022/01/17 02:10:38;;;;;;;118.85;84.47;;;0.30;99.90;;;;;;4992945;28;20022;-71
2022/01/17 02:13:04;;;;;;;117.93;87.60;;;0.40;99.90;;;;;;4994665;28;20058;-70
2022/01/17 02:15:30;;;;;;;123.85;86.32;;;0.40;99.90;;;;;;4992956;28;20062;-70
2022/01/17 02:17:57;;;;;;;129.18;88.47;;;0.40;99.90;;;;;;4977146;28;20033;-70
2022/01/17 02:20:40;;;;;;;125.72;85.57;;;0.50;99.90;;;;;;4993529;28;20154;-72
2022/01/17 02:23:07;;;;;;;123.10;85.60;;;0.50;99.90;;;;;;4994235;28;20085;-71
2022/01/17 02:25:34;;;;;;;121.00;83.95;;;0.60;99.90;;;;;;4994272;28;20109;-71
2022/01/17 02:28:03;;;;;;;119.85;82.10;;;0.50;99.90;;;;;;4994208;28;20080;-72
2022/01/17 02:30:32;;;;;;;110.63;75.35;;;0.60;99.90;;;;;;4994075;28;20026;-71
2022/01/17 02:33:02;;;;;;;118.85;80.63;;;0.60;99.90;;;;;;4994135;28;20053;-71
2022/01/17 02:35:29;;;;;;;114.15;80.43;;;0.60;99.90;;;;;;4994314;28;20137;-71
2022/01/17 02:37:56;;;;;;;114.07;75.95;;;0.60;99.90;;;;;;4976604;28;20030;-71
2022/01/17 02:40:23;;;;;;;107.35;74.57;;;0.60;99.90;;;;;;4993989;28;20023;-71
2022/01/17 02:43:02;;;;;;;119.50;78.00;;;0.50;99.90;;;;;;4993835;28;20026;-72
2022/01/17 02:48:04;;;;;;;107.40;73.25;;;0.50;99.90;;;;;;4993972;28;20027;-72
2022/01/17 02:50:30;;;;;;;112.32;77.63;;;0.50;99.90;;;;;;4994008;28;20031;-71
2022/01/17 02:53:01;;;;;;;109.93;75.45;;;0.50;99.90;;;;;;4993378;28;20438;-71
2022/01/17 02:55:28;;;;;;;110.63;77.75;;;0.50;99.90;;;;;;4993768;28;20054;-72
2022/01/17 02:57:54;;;;;;;108.70;78.35;;;0.40;99.90;;;;;;4993519;28;20046;-72
2022/01/17 03:00:20;;;;;;;113.53;77.10;;;0.40;99.90;;;;;;4993300;28;20117;-72
2022/01/17 03:02:48;;;;;;;108.47;76.32;;;0.40;99.90;;;;;;4993448;28;20076;-72
2022/01/17 03:05:16;;;;;;;106.53;75.38;;;0.40;99.90;;;;;;4993334;28;20031;-71
2022/01/17 03:07:43;;;;;;;120.63;75.13;;;0.40;99.90;;;;;;4975817;28;20027;-72
2022/01/17 03:10:18;;;;;;;106.93;72.88;;;0.40;99.90;;;;;;4993339;28;20023;-71
2022/01/17 03:12:45;;;;;;;102.68;74.93;;;0.40;99.90;;;;;;4993497;28;20072;-71
2022/01/17 03:15:13;;;;;;;113.25;73.45;;;0.40;99.90;;;;;;4992674;28;20461;-71
2022/01/17 03:17:40;;;;;;;106.78;75.90;;;0.50;99.90;;;;;;4992553;28;20038;-70
2022/01/17 03:20:06;;;;;;;106.40;71.78;;;0.50;99.90;;;;;;4993528;28;20441;-71
2022/01/17 03:22:33;;;;;;;110.75;73.65;;;0.50;99.90;;;;;;4993383;28;20465;-70
2022/01/17 03:24:59;;;;;;;106.57;74.38;;;0.50;99.90;;;;;;4993353;28;20117;-72
2022/01/17 03:27:25;;;;;;;113.90;73.60;;;0.50;99.90;;;;;;4993676;28;20034;-71
2022/01/17 03:29:51;;;;;;;106.97;72.97;;;0.50;99.90;;;;;;4993179;28;20033;-70
2022/01/17 03:32:17;;;;;;;106.43;72.90;;;0.60;99.90;;;;;;4975755;28;20034;-71
2022/01/17 03:34:43;;;;;;;103.50;74.95;;;0.60;99.90;;;;;;4992775;28;20022;-71
2022/01/17 03:37:09;;;;;;;103.00;70.15;;;0.70;99.90;;;;;;4993435;28;20046;-71
2022/01/17 03:39:35;;;;;;;109.45;70.43;;;0.70;99.90;;;;;;4993160;28;20057;-72
2022/01/17 03:42:01;;;;;;;105.25;74.30;;;0.70;99.90;;;;;;4992936;28;20027;-71
2022/01/17 03:44:26;;;;;;;108.15;71.20;;;0.70;99.90;;;;;;4993191;28;20033;-71
2022/01/17 03:46:52;;;;;;;103.22;69.78;;;0.70;99.90;;;;;;4993504;28;20480;-71
2022/01/17 03:49:18;;;;;;;108.20;72.68;;;0.80;99.90;;;;;;4992328;28;20473;-71
2022/01/17 03:51:44;;;;;;;107.30;71.43;;;0.80;99.90;;;;;;4993085;28;20030;-70
2022/01/17 03:54:10;;;;;;;98.60;68.15;;;0.80;99.90;;;;;;4992960;28;20058;-70
2022/01/17 03:56:36;;;;;;;100.78;69.75;;;0.80;99.90;;;;;;4992757;28;20501;-72
2022/01/17 03:59:02;;;;;;;98.38;68.38;;;0.90;99.90;;;;;;4991028;28;20038;-72
2022/01/17 04:01:29;;;;;;;100.82;66.63;;;0.90;99.90;;;;;;4992885;28;20039;-71
2022/01/17 04:03:55;;;;;;;101.18;68.80;;;0.90;99.90;;;;;;4992608;28;20034;-71
2022/01/17 04:06:21;;;;;;;101.95;66.57;;;0.90;99.90;;;;;;4975459;28;20027;-72
2022/01/17 04:08:47;;;;;;;95.72;64.57;;;0.90;99.90;;;;;;4993079;28;20033;-72
2022/01/17 04:11:13;;;;;;;94.70;64.18;;;0.90;99.90;;;;;;4992880;28;20422;-71
2022/01/17 04:13:39;;;;;;;94.00;64.82;;;0.90;99.90;;;;;;4991377;28;20030;-71
2022/01/17 04:16:05;;;;;;;92.45;64.78;;;1.00;99.90;;;;;;4992348;28;20181;-69
2022/01/17 04:18:31;;;;;;;97.13;65.15;;;1.00;99.90;;;;;;4992674;28;20469;-71
2022/01/17 04:21:00;;;;;;;90.43;64.93;;;1.00;99.90;;;;;;4975337;28;20065;-72
2022/01/17 04:23:26;;;;;;;87.75;61.65;;;1.00;99.90;;;;;;4992852;28;20064;-71
2022/01/17 04:25:52;;;;;;;95.25;64.72;;;1.10;99.90;;;;;;4992644;28;20030;-70
2022/01/17 04:28:18;;;;;;;90.35;60.15;;;1.10;99.90;;;;;;4992701;28;20233;-71
2022/01/17 04:30:45;;;;;;;88.47;58.58;;;1.00;99.90;;;;;;4974997;28;20499;-70
2022/01/17 04:33:14;;;;;;;90.78;60.20;;;1.10;99.90;;;;;;4992133;28;20105;-71
2022/01/17 04:35:41;;;;;;;91.20;60.85;;;1.10;99.90;;;;;;4992259;28;20037;-71
2022/01/17 04:38:12;;;;;;;85.70;61.58;;;1.10;99.90;;;;;;4992313;28;20034;-72
2022/01/17 04:40:40;;;;;;;91.68;60.03;;;1.10;99.90;;;;;;4992629;28;20037;-71
2022/01/17 04:43:21;;;;;;;92.78;62.40;;;1.10;99.90;;;;;;4991219;28;20034;-71
2022/01/17 04:45:49;;;;;;;87.20;58.65;;;1.10;99.90;;;;;;4992091;28;20026;-71
2022/01/17 04:48:15;;;;;;;83.38;57.78;;;1.20;99.90;;;;;;4992368;28;20026;-72
2022/01/17 04:50:42;;;;;;;89.97;59.40;;;1.20;99.90;;;;;;4992331;28;20515;-73
2022/01/17 04:53:11;;;;;;;83.10;57.72;;;1.30;99.90;;;;;;4992215;28;20098;-73
2022/01/17 04:55:37;;;;;;;88.10;58.35;;;1.30;99.90;;;;;;4974833;28;20030;-72
2022/01/17 04:58:04;;;;;;;79.22;55.53;;;1.40;99.90;;;;;;4991932;28;20046;-71
2022/01/17 05:00:30;;;;;;;88.20;56.35;;;1.40;99.90;;;;;;4991179;28;20076;-71
2022/01/17 05:02:56;;;;;;;82.00;54.88;;;1.40;99.90;;;;;;4991383;28;20042;-72
2022/01/17 05:05:23;;;;;;;78.07;54.80;;;1.40;99.90;;;;;;4991833;28;20027;-70
2022/01/17 05:07:49;;;;;;;84.30;56.20;;;1.40;99.90;;;;;;4990741;28;20039;-71
2022/01/17 05:10:17;;;;;;;75.60;52.65;;;1.50;99.90;;;;;;4991835;28;20033;-68
2022/01/17 05:12:44;;;;;;;71.72;50.55;;;1.40;99.90;;;;;;4991635;28;20034;-69
2022/01/17 05:18:00;;;;;;;97.00;65.68;;;1.40;99.90;;;;;;4990899;28;20034;-68
2022/01/17 05:20:27;;;;;;;107.07;71.82;;;1.50;99.90;;;;;;4972410;28;20027;-67
2022/01/17 05:22:54;;;;;;;105.45;71.20;;;1.40;99.90;;;;;;4987576;28;20030;-68
2022/01/17 05:25:20;;;;;;;118.57;77.80;;;1.40;99.90;;;;;;4967513;28;20026;-67
2022/01/17 05:27:46;;;;;;;117.63;74.05;;;1.40;99.90;;;;;;4990041;28;20033;-67
2022/01/17 05:30:15;;;;;;;96.38;62.60;;;1.40;99.90;;;;;;4992588;28;20512;-68
2022/01/17 05:32:44;;;;;;;86.23;57.17;;;1.40;99.90;;;;;;4976307;28;20054;-68
2022/01/17 05:35:11;;;;;;;99.57;63.08;;;1.40;99.90;;;;;;4994265;28;20049;-70
2022/01/17 05:37:38;;;;;;;100.45;64.93;;;1.30;99.90;;;;;;4960173;28;20397;-69
2022/01/17 05:40:07;;;;;;;150.73;89.10;;;1.30;99.90;;;;;;4994153;28;20022;-69
2022/01/17 05:42:36;;;;;;;203.05;113.05;;;1.20;99.90;;;;;;4994346;28;20030;-69
2022/01/17 05:45:04;;;;;;;128.80;83.13;;;1.30;99.90;;;;;;4994024;28;20073;-69
2022/01/17 05:47:30;;;;;;;138.07;84.75;;;1.20;99.90;;;;;;4994301;28;20023;-69
2022/01/17 05:49:57;;;;;;;155.75;99.65;;;1.10;99.90;;;;;;4988830;28;20030;-70
2022/01/17 05:52:23;;;;;;;163.80;102.57;;;1.10;99.90;;;;;;4992206;28;20023;-70
2022/01/17 05:54:49;;;;;;;137.32;91.00;;;1.10;99.90;;;;;;4993917;28;20385;-69
2022/01/17 05:57:17;;;;;;;132.38;91.50;;;1.10;99.90;;;;;;4992953;28;20034;-70
2022/01/17 05:59:43;;;;;;;129.88;88.97;;;1.00;99.90;;;;;;4983183;28;20361;-69
2022/01/17 06:02:10;;;;;;;125.22;86.85;;;1.00;99.90;;;;;;4977444;28;20125;-70
2022/01/17 06:04:36;;;;;;;129.85;87.60;;;0.80;99.90;;;;;;4978065;28;20027;-70
2022/01/17 06:07:03;;;;;;;137.38;91.50;;;0.80;99.90;;;;;;4995272;28;20053;-70
2022/01/17 06:09:29;;;;;;;152.70;99.35;;;0.80;99.90;;;;;;4995013;28;20485;-70
2022/01/17 06:11:56;;;;;;;148.95;101.00;;;0.80;99.90;;;;;;4994826;28;20034;-70
2022/01/17 06:14:23;;;;;;;149.07;97.13;;;0.80;99.90;;;;;;4994142;28;20055;-69
2022/01/17 06:16:49;;;;;;;143.73;96.90;;;0.90;99.90;;;;;;4994709;28;20521;-71
2022/01/17 06:19:16;;;;;;;141.65;94.28;;;0.90;99.90;;;;;;4995164;28;20042;-70
2022/01/17 06:21:43;;;;;;;142.57;91.10;;;0.80;99.90;;;;;;4994541;28;20026;-70
2022/01/17 06:24:09;;;;;;;138.95;96.25;;;0.90;99.90;;;;;;4994608;28;20082;-70
2022/01/17 06:26:37;;;;;;;181.60;116.68;;;0.80;99.90;;;;;;4994467;28;20043;-70
2022/01/17 06:29:04;;;;;;;199.02;125.88;;;0.80;99.90;;;;;;4994401;28;20034;-69
2022/01/17 06:31:30;;;;;;;184.77;121.78;;;0.80;99.90;;;;;;4994541;28;20023;-70
2022/01/17 06:33:56;;;;;;;225.38;145.85;;;0.90;99.90;;;;;;4994703;28;20065;-70
2022/01/17 06:36:23;;;;;;;199.38;122.25;;;0.90;99.90;;;;;;4994501;28;20092;-70
2022/01/17 06:38:49;;;;;;;195.75;127.30;;;0.90;99.90;;;;;;4994542;28;20026;-70
2022/01/17 06:41:19;;;;;;;191.90;118.22;;;1.00;99.90;;;;;;4993709;28;20023;-68
2022/01/17 06:43:46;;;;;;;185.60;122.30;;;1.00;99.90;;;;;;4994446;28;20061;-70
2022/01/17 06:46:12;;;;;;;181.57;118.20;;;1.20;99.90;;;;;;4994334;28;20022;-70
2022/01/17 06:48:39;;;;;;;201.13;123.82;;;1.20;99.90;;;;;;4994407;28;20113;-71
2022/01/17 06:51:05;;;;;;;236.77;144.70;;;1.30;99.90;;;;;;4994383;28;20547;-69
2022/01/17 06:53:31;;;;;;;193.35;125.38;;;1.30;99.90;;;;;;4994078;28;20053;-70
2022/01/17 06:55:57;;;;;;;207.68;129.45;;;1.40;99.90;;;;;;4993768;28;20061;-70
2022/01/17 06:58:23;;;;;;;178.63;122.30;;;1.50;99.90;;;;;;4993919;28;20502;-70
2022/01/17 07:00:49;;;;;;;232.27;144.38;;;1.50;99.90;;;;;;4992057;28;20369;-70
2022/01/17 07:03:16;;;;;;;181.93;116.03;;;1.60;99.90;;;;;;4994138;28;20053;-70
2022/01/17 07:05:42;;;;;;;164.85;112.03;;;1.60;99.90;;;;;;4993989;28;20026;-70
2022/01/17 07:08:08;;;;;;;170.23;110.13;;;1.60;99.90;;;;;;4976742;28;20109;-70
2022/01/17 07:10:34;;;;;;;152.45;103.32;;;1.60;99.90;;;;;;4993807;28;20022;-70
2022/01/17 07:13:00;;;;;;;144.73;97.47;;;1.70;99.90;;;;;;4994173;28;20508;-70
2022/01/17 07:15:26;;;;;;;130.63;92.50;;;1.60;99.90;;;;;;4992739;28;20362;-70
2022/01/17 07:17:52;;;;;;;145.60;92.93;;;1.60;99.90;;;;;;4993863;28;20069;-70
2022/01/17 07:20:18;;;;;;;130.55;86.30;;;1.70;99.90;;;;;;4994059;28;20065;-70
2022/01/17 07:22:44;;;;;;;123.75;84.53;;;1.80;99.90;;;;;;4993919;28;20077;-71
2022/01/17 07:25:10;;;;;;;114.50;76.47;;;1.90;99.90;;;;;;4993858;28;20030;-70
2022/01/17 07:27:39;;;;;;;108.40;75.72;;;2.00;99.90;;;;;;4993764;28;20022;-71
2022/01/17 07:30:07;;;;;;;105.30;71.00;;;2.10;99.90;;;;;;4993698;28;20072;-69
2022/01/17 07:32:34;;;;;;;97.35;69.80;;;2.40;99.90;;;;;;4993534;28;20121;-70
2022/01/17 07:35:00;;;;;;;96.78;65.88;;;2.50;99.90;;;;;;4993913;28;20034;-71
2022/01/17 07:37:26;;;;;;;80.78;57.60;;;2.50;99.90;;;;;;4998082;28;20069;-71
2022/01/17 07:39:52;;;;;;;93.40;65.60;;;2.70;99.90;;;;;;4993104;28;20097;-70
2022/01/17 07:42:18;;;;;;;120.20;82.68;;;2.70;99.90;;;;;;4993682;28;20038;-71
2022/01/17 07:44:52;;;;;;;120.70;82.07;;;2.70;99.90;;;;;;4975686;28;20401;-71
2022/01/17 07:47:24;;;;;;;112.55;78.80;;;2.80;99.90;;;;;;4993301;28;20026;-70
2022/01/17 07:49:50;;;;;;;98.43;70.93;;;2.80;99.90;;;;;;4993254;28;20026;-71
2022/01/17 07:52:16;;;;;;;91.30;63.47;;;2.80;99.90;;;;;;4992891;28;20034;-71
2022/01/17 07:54:44;;;;;;;90.68;64.03;;;3.00;99.90;;;;;;4992574;28;20037;-69
2022/01/17 07:57:11;;;;;;;91.65;62.15;;;3.00;99.90;;;;;;4992127;28;20034;-70
2022/01/17 07:59:37;;;;;;;88.72;60.58;;;3.10;99.90;;;;;;4991647;28;20054;-69
2022/01/17 08:02:04;;;;;;;78.00;53.13;;;3.20;99.90;;;;;;4992373;28;20042;-69
2022/01/17 08:04:30;;;;;;;76.18;50.33;;;3.30;99.90;;;;;;4992402;28;20454;-70
2022/01/17 08:06:56;;;;;;;76.68;52.70;;;3.30;99.90;;;;;;4992495;28;20030;-70
2022/01/17 08:09:25;;;;;;;80.45;53.08;;;3.20;99.90;;;;;;4992442;28;20026;-69
2022/01/17 08:11:52;;;;;;;76.32;51.28;;;3.10;99.90;;;;;;4991995;28;20421;-70
2022/01/17 08:14:18;;;;;;;78.90;55.20;;;3.30;99.90;;;;;;4992838;28;20436;-70
2022/01/17 08:16:44;;;;;;;92.22;61.63;;;3.30;99.90;;;;;;4974538;28;20489;-70
2022/01/17 08:19:12;;;;;;;109.35;68.88;;;3.40;99.90;;;;;;4991760;28;20030;-70
2022/01/17 08:21:39;;;;;;;117.13;75.40;;;3.40;99.90;;;;;;4990444;28;20061;-71
2022/01/17 08:24:05;;;;;;;119.13;77.90;;;3.40;99.90;;;;;;4991590;28;20027;-70
2022/01/17 08:26:31;;;;;;;114.63;71.55;;;3.30;99.90;;;;;;4992517;28;20026;-69
2022/01/17 08:28:57;;;;;;;116.95;76.70;;;3.30;99.90;;;;;;4992232;28;20034;-70
2022/01/17 08:31:22;;;;;;;106.65;71.53;;;3.50;99.90;;;;;;4992182;28;20088;-70
2022/01/17 08:33:48;;;;;;;130.20;81.60;;;3.60;99.90;;;;;;4990927;28;20041;-70
2022/01/17 08:36:18;;;;;;;126.90;82.07;;;3.70;99.90;;;;;;4990937;28;20477;-70
2022/01/17 08:38:48;;;;;;;113.30;72.95;;;3.70;99.90;;;;;;4992181;28;20069;-70
2022/01/17 08:41:16;;;;;;;104.97;73.38;;;3.90;99.90;;;;;;4992011;28;20500;-71
2022/01/17 08:43:42;;;;;;;104.70;69.20;;;4.10;99.90;;;;;;4992145;28;20050;-69
2022/01/17 08:46:08;;;;;;;94.45;62.28;;;4.20;99.90;;;;;;4992182;28;20054;-70
2022/01/17 08:48:34;;;;;;;98.20;65.45;;;4.30;99.90;;;;;;4981370;28;20497;-70
2022/01/17 08:51:00;;;;;;;97.45;63.45;;;4.50;99.90;;;;;;4993796;28;20085;-70
2022/01/17 08:53:26;;;;;;;82.82;53.95;;;4.70;99.90;;;;;;4992282;28;20054;-70
2022/01/17 08:55:52;;;;;;;84.90;53.25;;;5.00;99.90;;;;;;4992085;28;20057;-70
2022/01/17 08:58:18;;;;;;;62.20;39.83;;;5.20;99.90;;;;;;4991806;28;20054;-71
2022/01/17 09:00:45;;;;;;;58.47;39.58;;;5.30;99.90;;;;;;4991263;28;20485;-71
2022/01/17 09:03:11;;;;;;;55.78;35.92;;;5.50;99.90;;;;;;4991740;28;20034;-70
2022/01/17 09:05:37;;;;;;;50.00;33.03;;;5.60;99.90;;;;;;4991851;28;20034;-71
2022/01/17 09:08:04;;;;;;;51.45;33.78;;;5.80;99.90;;;;;;4991848;28;20022;-71
2022/01/17 09:10:31;;;;;;;47.28;31.48;;;6.00;99.90;;;;;;4992146;28;20042;-70
2022/01/17 09:12:57;;;;;;;42.83;27.02;;;6.20;99.90;;;;;;4991649;28;20033;-70
2022/01/17 09:15:24;;;;;;;43.00;26.67;;;6.40;99.90;;;;;;4991970;28;20118;-71
2022/01/17 09:17:50;;;;;;;40.28;25.45;;;6.60;99.90;;;;;;4991747;28;20069;-70
2022/01/17 09:20:16;;;;;;;34.58;23.08;;;6.80;99.90;;;;;;4974892;28;20046;-70
2022/01/17 09:22:42;;;;;;;37.55;25.33;;;7.00;99.90;;;;;;4973169;28;20034;-70
2022/01/17 09:25:09;;;;;;;36.05;21.08;;;7.10;99.90;;;;;;4991716;28;20052;-71
2022/01/17 09:27:36;;;;;;;32.15;19.33;;;7.40;99.50;;;;;;4992207;28;20096;-71
2022/01/17 09:30:09;;;;;;;26.25;16.63;;;7.60;98.20;;;;;;4991577;28;20109;-71
2022/01/17 09:32:36;;;;;;;27.05;15.27;;;7.70;96.60;;;;;;4991400;28;20046;-70
2022/01/17 09:35:05;;;;;;;24.75;14.40;;;7.80;94.90;;;;;;4991953;28;20033;-70
2022/01/17 09:37:32;;;;;;;22.52;13.40;;;7.80;94.90;;;;;;4990736;28;20038;-68
2022/01/17 09:39:58;;;;;;;23.55;12.63;;;7.90;94.50;;;;;;4991836;28;20019;-68
2022/01/17 09:42:24;;;;;;;21.30;10.77;;;8.00;93.50;;;;;;4999819;28;20436;-70
2022/01/17 09:44:50;;;;;;;21.25;11.57;;;8.10;91.70;;;;;;4974949;28;20030;-70
2022/01/17 09:47:17;;;;;;;21.10;11.05;;;8.30;92.00;;;;;;4991857;28;20034;-70
2022/01/17 09:49:51;;;;;;;18.02;10.32;;;8.30;92.00;;;;;;4991808;28;20026;-70
2022/01/17 09:54:53;;;;;;;17.42;9.93;;;8.40;88.00;;;;;;4998330;28;20056;-70
2022/01/17 09:57:21;;;;;;;13.18;8.45;;;8.40;89.30;;;;;;5008118;28;20034;-70
2022/01/17 09:59:47;;;;;;;13.32;7.55;;;8.30;88.40;;;;;;5010706;28;20026;-70
2022/01/17 10:02:13;;;;;;;14.90;7.25;;;8.40;87.60;;;;;;5011115;28;20495;-71
2022/01/17 10:04:40;;;;;;;16.23;7.95;;;8.40;87.20;;;;;;4996736;28;20099;-70
2022/01/17 10:07:07;;;;;;;17.10;8.23;;;8.40;88.00;;;;;;4956793;28;20022;-70
2022/01/17 10:09:35;;;;;;;16.95;8.43;;;8.50;86.40;;;;;;4990133;28;20038;-71
2022/01/17 10:12:11;;;;;;;13.90;7.40;;;8.50;87.30;;;;;;4963503;28;20440;-69
2022/01/17 10:15:04;;;;;;;12.25;6.78;;;8.60;87.40;;;;;;4973984;28;20042;-70
2022/01/17 10:17:42;;;;;;;14.38;6.70;;;8.50;85.80;;;;;;4995152;28;20042;-69
2022/01/17 10:20:10;;;;;;;14.80;6.43;;;8.60;86.80;;;;;;4995152;28;20100;-70
2022/01/17 10:22:47;;;;;;;14.32;6.82;;;8.60;85.70;;;;;;4994646;28;20073;-70
2022/01/17 10:25:39;;;;;;;13.93;7.05;;;8.60;84.80;;;;;;4994953;28;20026;-69
2022/01/17 10:36:47;;;;;;;12.27;5.95;;;9.00;85.20;;;;;;4953760;29;20080;-69
2022/01/17 10:39:13;;;;;;;9.73;5.10;;;8.90;83.20;;;;;;4953071;29;20079;-70
2022/01/17 10:41:39;;;;;;;11.82;5.70;;;8.90;83.20;;;;;;4921551;29;20043;-70
2022/01/17 10:44:05;;;;;;;13.18;5.32;;;8.90;83.00;;;;;;4952457;29;20035;-70
2022/01/17 10:46:32;;;;;;;14.48;6.78;;;8.90;82.90;;;;;;4953305;29;20039;-70
2022/01/17 10:48:58;;;;;;;12.35;6.50;;;8.90;84.20;;;;;;4953441;29;20069;-70
2022/01/17 10:51:33;;;;;;;14.80;6.93;;;8.80;83.10;;;;;;4937217;29;20031;-69
2022/01/17 10:54:19;;;;;;;13.48;6.03;;;9.00;84.20;;;;;;4953165;29;20501;-69
2022/01/17 10:56:51;;;;;;;18.50;7.32;;;9.00;83.20;;;;;;4952942;29;20060;-69
2022/01/17 10:59:28;;;;;;;11.23;6.28;;;9.10;82.50;;;;;;4952567;28;20066;-69
2022/01/17 11:01:54;;;;;;;13.82;5.93;;;9.30;84.40;;;;;;4952955;29;20274;-69
2022/01/17 11:04:39;;;;;;;11.82;5.25;;;9.40;83.10;;;;;;4930401;28;20565;-68
2022/01/17 11:07:07;;;;;;;12.73;5.35;;;9.30;81.50;;;;;;4957672;28;20129;-69
2022/01/17 11:09:42;;;;;;;11.82;5.57;;;9.30;81.10;;;;;;4974988;28;20054;-69
2022/01/17 11:12:13;;;;;;;12.40;5.30;;;9.30;81.50;;;;;;4974570;28;20085;-70
2022/01/17 11:14:40;;;;;;;9.10;4.25;;;9.30;80.90;;;;;;4974363;28;20027;-69
2022/01/17 11:17:33;;;;;;;13.07;5.15;;;9.30;81.70;;;;;;4974317;28;20125;-70
2022/01/17 11:20:06;;;;;;;14.43;6.00;;;9.00;80.60;;;;;;4974488;28;20458;-70
2022/01/17 11:22:41;;;;;;;10.98;5.85;;;9.10;81.30;;;;;;4974678;28;20027;-70
2022/01/17 11:25:11;;;;;;;7.53;3.90;;;9.20;81.70;;;;;;4989262;28;20034;-69
2022/01/17 11:27:38;;;;;;;8.52;4.40;;;9.20;80.50;;;;;;4978451;28;20385;-69
2022/01/17 11:30:06;;;;;;;12.15;4.82;;;9.20;81.80;;;;;;4957085;28;20062;-69
2022/01/17 11:32:32;;;;;;;15.27;5.40;;;9.30;80.90;;;;;;4957173;28;20496;-69
2022/01/17 11:35:02;;;;;;;20.42;4.82;;;9.40;79.10;;;;;;4976602;28;20019;-69
2022/01/17 11:37:33;;;;;;;13.70;4.93;;;9.50;79.70;;;;;;4973917;28;20041;-68
2022/01/17 11:39:59;;;;;;;15.02;6.75;;;9.50;77.80;;;;;;4988201;28;20366;-69
2022/01/17 11:42:47;;;;;;;13.23;5.47;;;9.60;76.00;;;;;;4993082;28;20041;-70
2022/01/17 11:45:22;;;;;;;15.25;7.28;;;9.70;77.50;;;;;;4993379;28;20076;-68
2022/01/17 11:47:51;;;;;;;18.77;6.68;;;9.90;76.50;;;;;;4993171;28;20247;-69
2022/01/17 11:52:56;;;;;;;27.17;10.85;;;9.90;75.40;;;;;;4974887;28;20018;-69
2022/01/17 11:55:43;;;;;;;26.27;11.73;;;9.90;76.40;;;;;;4990832;28;20022;-71
2022/01/17 11:58:26;;;;;;;27.15;10.52;;;9.90;75.10;;;;;;4974910;28;20053;-71
2022/01/17 12:01:01;;;;;;;24.10;9.68;;;9.90;74.50;;;;;;4965524;28;20041;-69
2022/01/17 12:03:47;;;;;;;20.15;9.68;;;10.00;75.50;;;;;;4992724;28;20113;-69
2022/01/17 12:06:33;;;;;;;12.45;5.82;;;9.90;75.10;;;;;;4993628;28;20097;-70
2022/01/17 12:09:25;;;;;;;20.02;9.18;;;10.00;74.00;;;;;;4992768;28;20553;-70
2022/01/17 12:12:15;;;;;;;23.05;11.70;;;10.10;74.30;;;;;;4991194;28;20030;-69
2022/01/17 12:14:53;;;;;;;18.73;7.97;;;10.20;74.70;;;;;;4998650;28;20034;-69
2022/01/17 12:17:19;;;;;;;24.45;11.73;;;10.30;75.50;;;;;;4988214;28;20043;-69
2022/01/17 12:20:04;;;;;;;17.67;6.38;;;10.20;74.60;;;;;;4966338;28;20053;-68
2022/01/17 12:22:58;;;;;;;13.65;6.15;;;10.30;74.40;;;;;;4995410;28;20022;-68
2022/01/17 12:25:25;;;;;;;10.93;4.45;;;10.30;75.60;;;;;;4991404;28;20047;-69
2022/01/17 12:28:03;;;;;;;18.70;8.25;;;10.30;74.90;;;;;;4989621;28;20015;-68
2022/01/17 12:30:47;;;;;;;13.27;5.60;;;10.30;75.20;;;;;;4990733;28;20030;-68
2022/01/17 12:33:28;;;;;;;10.65;4.13;;;10.40;74.70;;;;;;4984304;28;20504;-69
2022/01/17 12:35:56;;;;;;;12.32;4.10;;;10.40;72.60;;;;;;4971374;28;20529;-70
2022/01/17 12:38:41;;;;;;;9.65;4.95;;;10.40;73.30;;;;;;4979721;28;20081;-70
2022/01/17 12:41:31;;;;;;;8.90;4.60;;;10.50;73.10;;;;;;4990211;28;20030;-70
2022/01/17 12:43:57;;;;;;;11.75;4.93;;;10.60;72.70;;;;;;4955576;28;20030;-70
2022/01/17 12:46:25;;;;;;;17.52;6.50;;;10.60;71.90;;;;;;4974039;28;20041;-70
2022/01/17 12:48:52;;;;;;;18.13;7.68;;;10.60;72.90;;;;;;4968501;28;20029;-70
2022/01/17 12:51:19;;;;;;;17.63;8.85;;;10.70;73.40;;;;;;4991794;28;20061;-70
2022/01/17 12:53:50;;;;;;;13.52;5.75;;;10.70;71.40;;;;;;4990725;28;20138;-70
2022/01/17 12:56:17;;;;;;;13.80;5.80;;;10.60;71.10;;;;;;4960538;28;20049;-70
2022/01/17 12:58:43;;;;;;;8.18;4.20;;;10.60;70.50;;;;;;4971652;28;20046;-70
2022/01/17 13:01:17;;;;;;;10.88;4.95;;;10.70;72.90;;;;;;4979522;28;20030;-70
2022/01/17 13:03:49;;;;;;;7.15;4.07;;;10.70;72.80;;;;;;4982603;28;20473;-69
2022/01/17 13:06:17;;;;;;;7.00;3.75;;;10.60;72.10;;;;;;4972670;28;20400;-70
2022/01/17 13:08:45;;;;;;;11.35;5.35;;;10.70;72.30;;;;;;4972741;28;20030;-69